createdAt,value
2018-07-25T00:01:42.424Z,25.00
2018-07-25T00:04:12.667Z,25.00
2018-07-25T00:06:41.847Z,25.00
2018-07-25T00:09:11.911Z,25.00
2018-07-25T00:11:41.048Z,25.00
2018-07-25T00:14:10.482Z,25.00
2018-07-25T00:16:40.881Z,24.90
2018-07-25T00:19:10.150Z,24.90
2018-07-25T00:21:39.376Z,24.90
2018-07-25T00:24:08.885Z,24.90
2018-07-25T00:26:38.104Z,24.90
2018-07-25T00:29:07.424Z,24.80
2018-07-25T00:31:36.624Z,24.80
2018-07-25T00:34:05.908Z,24.70
2018-07-25T00:36:35.033Z,24.70
2018-07-25T00:39:08.258Z,24.60
2018-07-25T00:41:37.573Z,24.60
2018-07-25T00:44:06.807Z,24.60
2018-07-25T00:46:38.967Z,24.50
2018-07-25T00:49:08.931Z,24.50
2018-07-25T00:51:38.021Z,24.50
2018-07-25T00:54:14.637Z,24.50
2018-07-25T00:56:43.739Z,24.50
2018-07-25T00:59:13.485Z,24.40
2018-07-25T01:04:16.848Z,24.40
2018-07-25T01:06:46.984Z,24.30
2018-07-25T01:09:18.692Z,24.20
2018-07-25T01:11:56.963Z,24.20
2018-07-25T01:14:27.696Z,24.10
2018-07-25T01:16:56.814Z,24.10
2018-07-25T01:19:28.865Z,24.00
2018-07-25T01:21:57.945Z,24.00
2018-07-25T01:24:27.043Z,24.00
2018-07-25T01:26:58.142Z,23.90
2018-07-25T01:29:29.491Z,23.90
2018-07-25T01:32:00.706Z,23.80
2018-07-25T01:34:29.845Z,23.70
2018-07-25T01:36:59.038Z,23.60
2018-07-25T01:39:28.132Z,23.50
2018-07-25T01:42:07.464Z,23.40
2018-07-25T01:44:39.442Z,23.20
2018-07-25T01:47:08.703Z,23.10
2018-07-25T01:49:37.897Z,23.10
2018-07-25T01:52:07.506Z,23.00
2018-07-25T01:54:36.728Z,23.00
2018-07-25T01:57:06.492Z,22.90
2018-07-25T01:59:35.678Z,22.90
2018-07-25T02:02:04.793Z,22.90
2018-07-25T02:04:33.909Z,23.00
2018-07-25T02:07:05.050Z,23.00
2018-07-25T02:09:34.135Z,23.00
2018-07-25T02:12:03.162Z,23.00
2018-07-25T02:14:32.226Z,23.00
2018-07-25T02:17:01.317Z,23.10
2018-07-25T02:19:30.381Z,23.10
2018-07-25T02:21:59.448Z,23.10
2018-07-25T02:24:32.165Z,23.10
2018-07-25T02:27:01.583Z,23.20
2018-07-25T02:29:30.775Z,23.20
2018-07-25T02:31:59.881Z,23.20
2018-07-25T02:34:28.974Z,23.20
2018-07-25T02:36:58.100Z,23.20
2018-07-25T02:39:27.244Z,23.20
2018-07-25T02:41:56.312Z,23.20
2018-07-25T02:44:28.025Z,23.30
2018-07-25T02:47:06.018Z,23.30
2018-07-25T02:49:38.472Z,23.30
2018-07-25T02:54:39.610Z,23.30
2018-07-25T02:57:09.618Z,23.30
2018-07-25T02:59:38.940Z,23.30
2018-07-25T03:02:10.595Z,23.30
2018-07-25T03:04:41.572Z,23.30
2018-07-25T03:07:13.029Z,23.30
2018-07-25T03:09:42.572Z,23.30
2018-07-25T03:12:13.397Z,23.30
2018-07-25T03:14:44.985Z,23.20
2018-07-25T03:17:14.143Z,23.20
2018-07-25T03:19:44.174Z,23.20
2018-07-25T03:22:17.562Z,23.20
2018-07-25T03:24:46.928Z,23.20
2018-07-25T03:27:17.545Z,23.20
2018-07-25T03:29:48.209Z,23.20
2018-07-25T03:32:20.611Z,23.20
2018-07-25T03:34:50.216Z,23.20
2018-07-25T03:37:20.173Z,23.30
2018-07-25T03:39:52.739Z,23.30
2018-07-25T03:42:22.069Z,23.30
2018-07-25T03:44:51.306Z,23.20
2018-07-25T03:47:20.528Z,23.30
2018-07-25T03:49:51.117Z,23.30
2018-07-25T03:52:22.758Z,23.30
2018-07-25T03:54:57.970Z,23.30
2018-07-25T03:57:27.625Z,23.30
2018-07-25T04:00:04.393Z,23.30
2018-07-25T04:02:34.786Z,23.30
2018-07-25T04:05:03.971Z,23.30
2018-07-25T04:07:33.363Z,23.30
2018-07-25T04:10:05.090Z,23.30
2018-07-25T04:12:35.301Z,23.30
2018-07-25T04:15:07.730Z,23.40
2018-07-25T04:17:47.032Z,23.40
2018-07-25T04:20:18.321Z,23.40
2018-07-25T04:22:48.125Z,23.50
2018-07-25T04:25:20.886Z,23.50
2018-07-25T04:27:52.263Z,23.60
2018-07-25T04:30:22.641Z,23.80
2018-07-25T04:32:54.977Z,23.90
2018-07-25T04:35:24.243Z,24.10
2018-07-25T04:37:53.841Z,24.30
2018-07-25T04:40:26.343Z,24.40
2018-07-25T04:42:55.552Z,24.60
2018-07-25T04:45:27.028Z,24.90
2018-07-25T04:47:57.858Z,25.10
2018-07-25T04:50:30.210Z,25.30
2018-07-25T04:53:04.840Z,25.50
2018-07-25T04:55:38.651Z,25.70
2018-07-25T04:58:08.962Z,25.90
2018-07-25T05:00:40.132Z,26.20
2018-07-25T05:03:09.982Z,26.40
2018-07-25T05:05:42.879Z,26.70
2018-07-25T05:08:12.144Z,27.00
2018-07-25T05:10:41.345Z,27.30
2018-07-25T05:13:10.672Z,27.50
2018-07-25T05:15:39.932Z,27.80
2018-07-25T05:18:09.253Z,28.10
2018-07-25T05:20:39.101Z,28.40
2018-07-25T05:23:08.373Z,28.70
2018-07-25T05:25:37.593Z,29.00
2018-07-25T05:28:06.864Z,29.20
2018-07-25T05:30:36.143Z,29.40
2018-07-25T05:33:06.192Z,29.60
2018-07-25T05:35:35.492Z,29.80
2018-07-25T05:38:05.084Z,30.00
2018-07-25T05:40:34.260Z,30.20
2018-07-25T05:43:03.523Z,30.30
2018-07-25T05:45:33.783Z,30.40
2018-07-25T05:48:07.703Z,30.30
2018-07-25T05:50:38.020Z,30.20
2018-07-25T05:53:08.500Z,30.20
2018-07-25T05:55:37.771Z,30.10
2018-07-25T05:58:07.043Z,30.00
2018-07-25T06:00:36.294Z,29.90
2018-07-25T06:03:06.066Z,29.90
2018-07-25T06:05:36.005Z,30.00
2018-07-25T06:08:05.759Z,30.00
2018-07-25T06:10:34.927Z,30.10
2018-07-25T06:13:04.552Z,30.20
2018-07-25T06:15:34.078Z,30.30
2018-07-25T06:18:03.496Z,30.50
2018-07-25T06:20:32.624Z,30.80
2018-07-25T06:23:03.593Z,31.10
2018-07-25T06:25:32.710Z,31.40
2018-07-25T06:28:01.865Z,31.80
2018-07-25T06:30:31.036Z,32.10
2018-07-25T06:33:00.211Z,32.40
2018-07-25T06:35:29.304Z,32.70
2018-07-25T06:37:58.570Z,32.90
2018-07-25T06:40:27.751Z,33.20
2018-07-25T06:42:56.846Z,33.50
2018-07-25T06:45:26.146Z,33.70
2018-07-25T06:47:55.332Z,33.90
2018-07-25T06:50:24.475Z,34.10
2018-07-25T06:52:53.714Z,34.30
2018-07-25T06:55:23.265Z,34.40
2018-07-25T06:57:54.136Z,34.50
2018-07-25T07:00:23.360Z,34.60
2018-07-25T07:02:52.572Z,34.70
2018-07-25T07:05:23.847Z,34.80
2018-07-25T07:07:53.251Z,34.90
2018-07-25T07:10:22.520Z,35.00
2018-07-25T07:12:53.000Z,35.20
2018-07-25T07:15:22.355Z,35.30
2018-07-25T07:17:51.396Z,35.50
2018-07-25T07:20:20.595Z,35.60
2018-07-25T07:22:50.120Z,35.70
2018-07-25T07:25:19.773Z,35.90
2018-07-25T07:27:49.085Z,36.00
2018-07-25T07:30:18.355Z,36.20
2018-07-25T07:32:48.392Z,36.40
2018-07-25T07:35:18.109Z,36.50
2018-07-25T07:37:47.656Z,36.70
2018-07-25T07:40:17.417Z,36.70
2018-07-25T07:42:49.842Z,36.80
2018-07-25T07:45:20.167Z,37.00
2018-07-25T07:47:49.578Z,37.10
2018-07-25T07:50:18.819Z,37.10
2018-07-25T07:52:50.364Z,37.30
2018-07-25T07:55:19.759Z,37.40
2018-07-25T07:57:48.984Z,37.50
2018-07-25T08:00:22.220Z,37.60
2018-07-25T08:02:51.457Z,37.70
2018-07-25T08:05:20.662Z,37.80
2018-07-25T08:07:49.732Z,37.80
2018-07-25T08:10:19.147Z,37.80
2018-07-25T08:12:48.356Z,37.80
2018-07-25T08:15:17.865Z,37.70
2018-07-25T08:17:47.273Z,37.70
2018-07-25T08:20:16.471Z,37.80
2018-07-25T08:22:46.146Z,37.90
2018-07-25T08:25:15.594Z,38.00
2018-07-25T08:27:45.884Z,38.10
2018-07-25T08:30:15.297Z,38.30
2018-07-25T08:32:44.522Z,38.50
2018-07-25T08:35:13.992Z,38.60
2018-07-25T08:37:43.368Z,38.80
2018-07-25T08:40:12.622Z,38.90
2018-07-25T08:42:41.828Z,39.00
2018-07-25T08:45:11.652Z,38.90
2018-07-25T08:47:43.110Z,38.90
2018-07-25T08:50:12.676Z,38.70
2018-07-25T08:52:42.215Z,38.50
2018-07-25T08:55:11.542Z,38.20
2018-07-25T08:57:40.563Z,37.90
2018-07-25T09:00:09.977Z,37.50
2018-07-25T09:02:40.692Z,37.20
2018-07-25T09:05:10.001Z,37.00
2018-07-25T09:07:40.231Z,36.70
2018-07-25T09:10:11.661Z,36.60
2018-07-25T09:12:41.014Z,36.50
2018-07-25T09:15:11.311Z,36.40
2018-07-25T09:17:40.696Z,36.30
2018-07-25T09:20:10.062Z,36.20
2018-07-25T09:22:40.292Z,36.10
2018-07-25T09:25:09.427Z,35.90
2018-07-25T09:27:39.374Z,35.90
2018-07-25T09:30:09.283Z,35.90
2018-07-25T09:32:38.411Z,36.10
2018-07-25T09:35:07.716Z,36.30
2018-07-25T09:37:37.457Z,36.60
2018-07-25T09:40:06.862Z,36.90
2018-07-25T09:42:36.019Z,37.20
2018-07-25T09:45:07.611Z,37.50
2018-07-25T09:47:37.285Z,37.70
2018-07-25T09:50:09.622Z,37.90
2018-07-25T09:52:40.116Z,38.10
2018-07-25T09:55:10.456Z,38.20
2018-07-25T09:57:39.708Z,38.30
2018-07-25T10:00:12.471Z,38.30
2018-07-25T10:02:42.773Z,38.20
2018-07-25T10:05:14.461Z,38.00
2018-07-25T10:07:44.600Z,37.80
2018-07-25T10:10:15.539Z,37.50
2018-07-25T10:12:46.704Z,37.30
2018-07-25T10:15:17.027Z,37.10
2018-07-25T10:17:47.716Z,37.00
2018-07-25T10:20:23.553Z,37.00
2018-07-25T10:22:55.863Z,37.00
2018-07-25T10:25:25.803Z,36.80
2018-07-25T10:27:55.332Z,36.80
2018-07-25T10:30:24.862Z,36.90
2018-07-25T10:32:54.281Z,37.10
2018-07-25T10:35:23.402Z,37.20
2018-07-25T10:37:52.694Z,37.40
2018-07-25T10:40:25.273Z,37.60
2018-07-25T10:42:55.053Z,37.80
2018-07-25T10:45:24.630Z,37.90
2018-07-25T10:47:53.716Z,38.00
2018-07-25T10:50:23.272Z,38.10
2018-07-25T10:52:52.488Z,38.20
2018-07-25T10:55:22.066Z,38.30
2018-07-25T10:57:51.781Z,38.50
2018-07-25T11:00:22.817Z,38.70
2018-07-25T11:05:24.349Z,39.10
2018-07-25T11:07:55.272Z,39.20
2018-07-25T11:10:26.963Z,39.30
2018-07-25T11:12:58.102Z,39.40
2018-07-25T11:15:28.338Z,39.50
2018-07-25T11:17:57.851Z,39.40
2018-07-25T11:20:27.203Z,39.20
2018-07-25T11:22:56.623Z,39.00
2018-07-25T11:25:26.877Z,38.80
2018-07-25T11:27:57.872Z,38.70
2018-07-25T11:30:27.931Z,38.60
2018-07-25T11:32:57.481Z,38.50
2018-07-25T11:35:26.874Z,38.50
2018-07-25T11:37:56.169Z,38.50
2018-07-25T11:40:25.271Z,38.40
2018-07-25T11:42:54.381Z,38.30
2018-07-25T11:45:25.818Z,38.10
2018-07-25T11:47:57.599Z,38.00
2018-07-25T11:50:26.934Z,37.80
2018-07-25T11:52:57.431Z,37.60
2018-07-25T11:55:28.463Z,37.50
2018-07-25T11:57:57.965Z,37.40
2018-07-25T12:00:27.249Z,37.30
2018-07-25T12:02:56.722Z,37.20
2018-07-25T12:05:28.035Z,37.20
2018-07-25T12:07:59.000Z,37.20
2018-07-25T12:10:28.975Z,37.20
2018-07-25T12:12:59.639Z,37.10
2018-07-25T12:15:29.834Z,37.00
2018-07-25T12:17:59.250Z,37.00
2018-07-25T12:20:29.979Z,37.00
2018-07-25T12:22:59.173Z,36.80
2018-07-25T12:25:28.352Z,36.70
2018-07-25T12:27:57.783Z,36.60
2018-07-25T12:30:27.487Z,36.40
2018-07-25T12:32:58.014Z,36.30
2018-07-25T12:35:28.209Z,36.10
2018-07-25T12:37:57.662Z,36.00
2018-07-25T12:40:30.187Z,35.80
2018-07-25T12:43:01.995Z,35.60
2018-07-25T12:45:31.894Z,35.50
2018-07-25T12:48:01.772Z,35.40
2018-07-25T12:50:31.845Z,35.40
2018-07-25T12:53:03.951Z,35.40
2018-07-25T12:55:33.725Z,35.40
2018-07-25T12:58:03.701Z,35.50
2018-07-25T13:00:35.406Z,35.60
2018-07-25T13:03:05.052Z,35.60
2018-07-25T13:05:34.531Z,35.80
2018-07-25T13:08:04.183Z,35.80
2018-07-25T13:10:33.663Z,35.90
2018-07-25T13:13:02.919Z,36.10
2018-07-25T13:15:35.407Z,36.30
2018-07-25T13:18:04.892Z,36.50
2018-07-25T13:20:36.384Z,36.60
2018-07-25T13:23:12.662Z,36.80
2018-07-25T13:25:44.095Z,37.00
2018-07-25T13:28:13.775Z,37.00
2018-07-25T13:30:44.411Z,37.00
2018-07-25T13:33:14.622Z,37.00
2018-07-25T13:35:45.606Z,37.00
2018-07-25T13:38:15.480Z,37.10
2018-07-25T13:40:47.349Z,37.10
2018-07-25T13:43:16.711Z,37.10
2018-07-25T13:45:45.886Z,37.20
2018-07-25T13:48:15.173Z,37.20
2018-07-25T13:50:45.501Z,37.30
2018-07-25T13:53:14.744Z,37.30
2018-07-25T13:55:43.968Z,37.30
2018-07-25T13:58:13.254Z,37.40
2018-07-25T14:03:11.974Z,37.60
2018-07-25T14:05:41.329Z,37.60
2018-07-25T14:08:10.443Z,37.50
2018-07-25T14:10:39.997Z,37.40
2018-07-25T14:13:09.896Z,37.30
2018-07-25T14:15:39.264Z,37.30
2018-07-25T14:18:09.056Z,37.10
2018-07-25T14:20:38.016Z,37.10
2018-07-25T14:23:07.223Z,37.10
2018-07-25T14:25:36.290Z,37.10
2018-07-25T14:28:05.585Z,37.10
2018-07-25T14:30:34.844Z,37.00
2018-07-25T14:33:04.026Z,37.00
2018-07-25T14:35:33.688Z,37.00
2018-07-25T14:38:03.456Z,37.00
2018-07-25T14:40:34.736Z,37.00
2018-07-25T14:43:04.150Z,37.00
2018-07-25T14:45:33.365Z,37.00
2018-07-25T14:48:02.581Z,37.00
2018-07-25T14:50:31.979Z,37.00
2018-07-25T14:53:01.210Z,37.00
2018-07-25T14:55:30.467Z,37.10
2018-07-25T14:58:02.598Z,37.20
2018-07-25T15:00:31.984Z,37.30
2018-07-25T15:03:01.453Z,37.50
2018-07-25T15:05:30.708Z,37.60
2018-07-25T15:08:02.350Z,37.70
2018-07-25T15:10:31.722Z,37.70
2018-07-25T15:13:01.769Z,37.70
2018-07-25T15:15:31.620Z,37.80
2018-07-25T15:18:01.173Z,37.70
2018-07-25T15:20:31.110Z,37.70
2018-07-25T15:25:33.356Z,37.60
2018-07-25T15:28:04.029Z,37.50
2018-07-25T15:30:36.043Z,37.50
2018-07-25T15:33:05.574Z,37.40
2018-07-25T15:35:34.842Z,37.30
2018-07-25T15:38:03.977Z,37.30
2018-07-25T15:40:34.537Z,37.30
2018-07-25T15:43:03.812Z,37.20
2018-07-25T15:45:40.058Z,37.10
2018-07-25T15:48:09.720Z,37.10
2018-07-25T15:50:39.074Z,37.00
2018-07-25T15:53:08.527Z,36.90
2018-07-25T15:55:39.030Z,36.80
2018-07-25T15:58:08.856Z,36.70
2018-07-25T16:00:38.942Z,36.60
2018-07-25T16:03:08.267Z,36.50
2018-07-25T16:05:38.058Z,36.40
2018-07-25T16:08:07.531Z,36.40
2018-07-25T16:10:36.863Z,36.30
2018-07-25T16:13:06.604Z,36.30
2018-07-25T16:15:36.065Z,36.30
2018-07-25T16:18:05.434Z,36.30
2018-07-25T16:20:37.216Z,36.20
2018-07-25T16:23:06.645Z,36.20
2018-07-25T16:25:35.884Z,36.10
2018-07-25T16:30:35.766Z,36.00
2018-07-25T16:33:05.176Z,36.00
2018-07-25T16:35:48.826Z,35.90
2018-07-25T16:38:18.370Z,35.80
2018-07-25T16:40:48.200Z,35.80
2018-07-25T16:43:18.360Z,35.80
2018-07-25T16:45:48.626Z,35.80
2018-07-25T16:48:18.361Z,35.70
2018-07-25T16:50:48.081Z,35.80
2018-07-25T16:53:19.377Z,35.70
2018-07-25T16:55:49.671Z,35.70
2018-07-25T16:58:20.660Z,35.60
2018-07-25T17:00:50.233Z,35.60
2018-07-25T17:03:19.357Z,35.40
2018-07-25T17:05:48.417Z,35.30
2018-07-25T17:08:18.011Z,35.20
2018-07-25T17:10:47.268Z,35.10
2018-07-25T17:13:18.223Z,35.00
2018-07-25T17:15:47.420Z,34.80
2018-07-25T17:18:19.688Z,34.60
2018-07-25T17:20:54.715Z,34.60
2018-07-25T17:23:26.990Z,34.40
2018-07-25T17:25:58.517Z,34.30
2018-07-25T17:28:27.616Z,34.20
2018-07-25T17:30:57.242Z,34.00
2018-07-25T17:33:28.903Z,34.00
2018-07-25T17:36:01.712Z,33.80
2018-07-25T17:38:33.128Z,33.70
2018-07-25T17:41:04.390Z,33.60
2018-07-25T17:43:33.549Z,33.50
2018-07-25T17:46:05.900Z,33.50
2018-07-25T17:48:35.321Z,33.40
2018-07-25T17:51:07.565Z,33.30
2018-07-25T17:53:38.389Z,33.30
2018-07-25T17:56:08.237Z,33.20
2018-07-25T17:58:39.211Z,33.20
2018-07-25T18:01:09.425Z,33.10
2018-07-25T18:03:39.808Z,33.10
2018-07-25T18:06:10.620Z,33.10
2018-07-25T18:08:40.207Z,33.00
2018-07-25T18:11:12.019Z,33.00
2018-07-25T18:14:49.852Z,33.00
2018-07-25T18:17:21.432Z,32.90
2018-07-25T18:19:57.683Z,32.80
2018-07-25T18:22:36.797Z,32.70
2018-07-25T18:28:38.535Z,32.60
2018-07-25T18:31:07.705Z,32.60
2018-07-25T18:33:38.850Z,32.30
2018-07-25T18:36:08.288Z,32.20
2018-07-25T18:38:37.432Z,32.10
2018-07-25T18:41:08.292Z,32.10
2018-07-25T18:43:39.828Z,32.00
2018-07-25T18:48:41.789Z,31.90
2018-07-25T18:51:17.035Z,31.80
2018-07-25T18:53:48.972Z,31.80
2018-07-25T18:56:18.959Z,31.70
2018-07-25T18:58:48.060Z,31.70
2018-07-25T19:01:19.208Z,31.60
2018-07-25T19:03:53.981Z,31.50
2018-07-25T19:06:25.603Z,31.40
2018-07-25T19:08:54.657Z,31.30
2018-07-25T19:11:24.232Z,31.30
2018-07-25T19:13:58.521Z,31.10
2018-07-25T19:16:28.928Z,31.10
2018-07-25T19:19:01.380Z,30.90
2018-07-25T19:21:32.521Z,30.90
2018-07-25T19:24:02.136Z,30.80
2018-07-25T19:26:38.989Z,30.80
2018-07-25T19:29:09.434Z,30.70
2018-07-25T19:31:40.808Z,30.70
2018-07-25T19:34:13.747Z,30.70
2018-07-25T19:36:45.866Z,30.70
2018-07-25T19:39:16.898Z,30.70
2018-07-25T19:41:46.760Z,30.60
2018-07-25T19:44:18.263Z,30.60
2018-07-25T19:46:50.364Z,30.60
2018-07-25T19:49:19.448Z,30.60
2018-07-25T19:51:54.272Z,30.60
2018-07-25T19:54:23.667Z,30.50
2018-07-25T19:56:56.076Z,30.50
2018-07-25T19:59:26.006Z,30.60
2018-07-25T20:01:55.913Z,30.60
2018-07-25T20:04:25.000Z,30.60
2018-07-25T20:09:28.504Z,30.50
2018-07-25T20:11:59.056Z,30.50
2018-07-25T20:14:33.650Z,30.40
2018-07-25T20:17:04.172Z,30.30
2018-07-25T20:19:36.723Z,30.20
2018-07-25T20:22:07.901Z,30.10
2018-07-25T20:24:41.002Z,30.00
2018-07-25T20:27:10.130Z,29.90
2018-07-25T20:29:43.329Z,29.90
2018-07-25T20:32:16.510Z,29.80
2018-07-25T20:34:46.246Z,29.70
2018-07-25T20:37:18.233Z,29.60
2018-07-25T20:39:50.660Z,29.50
2018-07-25T20:42:23.691Z,29.40
2018-07-25T20:45:03.637Z,29.30
2018-07-25T20:47:34.505Z,29.20
2018-07-25T20:50:05.663Z,29.10
2018-07-25T20:52:35.949Z,29.00
2018-07-25T20:55:09.718Z,28.90
2018-07-25T20:57:38.762Z,28.80
2018-07-25T21:00:07.811Z,28.70
2018-07-25T21:02:37.703Z,28.60
2018-07-25T21:05:27.274Z,28.50
2018-07-25T21:07:56.768Z,28.40
2018-07-25T21:10:27.315Z,28.30
2018-07-25T21:12:58.453Z,28.30
2018-07-25T21:15:27.663Z,28.20
2018-07-25T21:17:57.430Z,28.20
2018-07-25T21:20:26.532Z,28.20
2018-07-25T21:22:55.996Z,28.20
2018-07-25T21:25:26.298Z,28.10
2018-07-25T21:27:55.542Z,28.10
2018-07-25T21:30:27.193Z,28.10
2018-07-25T21:33:01.066Z,28.00
2018-07-25T21:35:33.536Z,28.00
2018-07-25T21:38:04.843Z,27.90
2018-07-25T21:40:35.056Z,27.90
2018-07-25T21:43:04.948Z,27.90
2018-07-25T21:45:36.995Z,27.80
2018-07-25T21:48:09.536Z,27.80
2018-07-25T21:50:42.385Z,27.80
2018-07-25T21:53:12.484Z,27.70
2018-07-25T21:55:43.249Z,27.70
2018-07-25T21:58:13.053Z,27.70
2018-07-25T22:00:48.558Z,27.70
2018-07-25T22:03:18.861Z,27.70
2018-07-25T22:05:49.504Z,27.60
2018-07-25T22:08:19.379Z,27.60
2018-07-25T22:10:50.138Z,27.50
2018-07-25T22:13:20.435Z,27.50
2018-07-25T22:18:20.529Z,27.40
2018-07-25T22:20:50.980Z,27.20
2018-07-25T22:23:20.688Z,27.20
2018-07-25T22:25:50.472Z,27.00
2018-07-25T22:28:20.038Z,26.90
2018-07-25T22:30:49.391Z,26.80
2018-07-25T22:33:19.889Z,26.70
2018-07-25T22:35:52.146Z,26.70
2018-07-25T22:38:22.076Z,26.60
2018-07-25T22:40:51.811Z,26.50
2018-07-25T22:43:21.330Z,26.40
2018-07-25T22:45:53.343Z,26.40
2018-07-25T22:48:23.236Z,26.40
2018-07-25T22:50:55.857Z,26.30
2018-07-25T22:53:25.599Z,26.30
2018-07-25T22:55:54.924Z,26.20
2018-07-25T22:58:24.409Z,26.20
2018-07-25T23:00:54.068Z,26.10
2018-07-25T23:03:23.643Z,26.00
2018-07-25T23:05:53.488Z,26.00
2018-07-25T23:08:23.822Z,26.00
2018-07-25T23:10:53.336Z,25.90
2018-07-25T23:13:22.837Z,25.80
2018-07-25T23:15:53.072Z,25.80
2018-07-25T23:18:22.823Z,25.70
2018-07-25T23:20:52.484Z,25.70
2018-07-25T23:23:22.901Z,25.70
2018-07-25T23:25:55.089Z,25.60
2018-07-25T23:28:27.548Z,25.60
2018-07-25T23:31:01.092Z,25.60
2018-07-25T23:33:31.421Z,25.60
2018-07-25T23:36:00.766Z,25.60
2018-07-25T23:38:30.862Z,25.60
2018-07-25T23:41:00.066Z,25.60
2018-07-25T23:43:29.851Z,25.60
2018-07-25T23:46:00.173Z,25.50
2018-07-25T23:48:29.501Z,25.40
2018-07-25T23:51:00.087Z,25.40
2018-07-25T23:53:29.698Z,25.30
2018-07-25T23:56:00.934Z,25.30
2018-07-25T23:58:30.356Z,25.20
